createdAt,value
2023-01-29T00:01:45.655Z,8.52
2023-01-29T00:06:36.697Z,8.49
2023-01-29T00:11:33.970Z,8.49
2023-01-29T00:16:28.489Z,8.53
2023-01-29T00:21:22.676Z,8.51
2023-01-29T00:26:14.709Z,8.49
2023-01-29T00:31:16.183Z,8.50
2023-01-29T00:36:07.665Z,8.42
2023-01-29T00:41:12.796Z,8.38
2023-01-29T00:46:04.476Z,8.42
2023-01-29T00:50:58.901Z,8.32
2023-01-29T00:55:49.243Z,8.38
2023-01-29T01:00:49.178Z,8.40
2023-01-29T01:05:39.879Z,8.43
2023-01-29T01:10:42.935Z,8.43
2023-01-29T01:15:38.081Z,8.45
2023-01-29T01:20:32.308Z,8.37
2023-01-29T01:25:30.608Z,8.40
2023-01-29T01:30:25.327Z,8.40
2023-01-29T01:35:16.009Z,8.37
2023-01-29T01:40:18.851Z,8.39
2023-01-29T01:45:13.202Z,8.47
2023-01-29T01:50:09.166Z,8.48
2023-01-29T01:55:05.152Z,8.44
2023-01-29T02:00:01.374Z,8.52
2023-01-29T02:05:06.555Z,8.51
2023-01-29T02:10:13.703Z,8.50
2023-01-29T02:15:07.896Z,7.78
2023-01-29T02:20:04.538Z,8.15
2023-01-29T02:25:11.925Z,8.22
2023-01-29T02:30:10.344Z,8.22
2023-01-29T02:35:19.433Z,8.33
2023-01-29T02:40:25.087Z,8.28
2023-01-29T02:45:20.939Z,8.27
2023-01-29T02:50:17.798Z,8.22
2023-01-29T02:55:15.679Z,8.22
2023-01-29T03:00:10.078Z,8.17
2023-01-29T03:05:10.773Z,8.21
2023-01-29T03:15:20.489Z,8.17
2023-01-29T03:20:33.238Z,8.13
2023-01-29T03:25:39.560Z,8.01
2023-01-29T03:30:43.719Z,8.00
2023-01-29T03:36:00.978Z,8.09
2023-01-29T03:40:56.574Z,8.13
2023-01-29T03:45:54.383Z,8.14
2023-01-29T03:50:59.325Z,8.06
2023-01-29T03:55:59.959Z,8.11
2023-01-29T04:00:56.363Z,8.01
2023-01-29T04:05:53.291Z,8.01
2023-01-29T04:10:51.449Z,7.99
2023-01-29T04:15:48.887Z,8.04
2023-01-29T04:20:42.819Z,7.95
2023-01-29T04:25:39.881Z,7.99
2023-01-29T04:30:42.647Z,7.87
2023-01-29T04:35:40.202Z,7.34
2023-01-29T04:40:38.211Z,7.78
2023-01-29T04:45:36.653Z,7.77
2023-01-29T04:50:34.785Z,7.74
2023-01-29T04:55:38.956Z,7.79
2023-01-29T05:00:33.242Z,7.75
2023-01-29T05:05:23.898Z,7.78
2023-01-29T05:10:16.024Z,7.77
2023-01-29T05:15:14.853Z,7.85
2023-01-29T05:20:07.590Z,7.88
2023-01-29T05:24:58.399Z,7.90
2023-01-29T05:29:51.679Z,7.87
2023-01-29T05:34:51.232Z,7.87
2023-01-29T05:39:41.127Z,7.90
2023-01-29T05:44:31.319Z,7.96
2023-01-29T05:49:27.861Z,7.96
2023-01-29T05:54:20.627Z,7.93
2023-01-29T05:59:10.245Z,7.98
2023-01-29T06:03:59.804Z,7.92
2023-01-29T06:08:50.220Z,7.91
2023-01-29T06:13:43.187Z,7.88
2023-01-29T06:18:34.800Z,7.94
2023-01-29T06:23:39.009Z,7.95
2023-01-29T06:28:30.105Z,7.91
2023-01-29T06:33:26.842Z,7.98
2023-01-29T06:38:18.228Z,7.88
2023-01-29T06:43:10.013Z,7.83
2023-01-29T06:48:02.131Z,7.26
2023-01-29T06:52:58.916Z,7.16
2023-01-29T06:57:48.555Z,7.70
2023-01-29T07:02:40.734Z,7.52
2023-01-29T07:07:30.540Z,7.58
2023-01-29T07:12:24.521Z,7.75
2023-01-29T07:17:17.755Z,7.98
2023-01-29T07:27:23.923Z,7.91
2023-01-29T07:32:24.699Z,7.97
2023-01-29T07:37:17.524Z,7.99
2023-01-29T07:42:08.749Z,8.01
2023-01-29T07:47:01.018Z,8.03
2023-01-29T07:51:55.053Z,8.00
2023-01-29T07:56:45.971Z,8.00
2023-01-29T08:01:42.337Z,7.85
2023-01-29T08:06:36.996Z,8.00
2023-01-29T08:11:33.169Z,8.03
2023-01-29T08:16:33.419Z,8.04
2023-01-29T08:21:40.876Z,7.95
2023-01-29T08:26:33.334Z,7.97
2023-01-29T08:31:29.821Z,8.04
2023-01-29T08:36:21.746Z,8.00
2023-01-29T08:41:12.818Z,7.98
2023-01-29T08:46:08.939Z,8.04
2023-01-29T08:51:05.463Z,8.19
2023-01-29T08:56:01.964Z,8.09
2023-01-29T09:00:53.569Z,7.93
2023-01-29T09:05:47.327Z,8.10
2023-01-29T09:10:37.934Z,8.13
2023-01-29T09:15:30.610Z,8.21
2023-01-29T09:20:24.622Z,8.09
2023-01-29T09:25:23.439Z,8.27
2023-01-29T09:30:23.057Z,8.38
2023-01-29T09:35:18.505Z,8.43
2023-01-29T09:40:34.149Z,8.51
2023-01-29T09:45:29.846Z,8.48
2023-01-29T09:50:22.237Z,8.44
2023-01-29T09:55:23.118Z,8.48
2023-01-29T10:00:25.305Z,8.66
2023-01-29T10:05:33.615Z,8.63
2023-01-29T10:10:37.937Z,8.46
2023-01-29T10:15:41.624Z,8.69
2023-01-29T10:21:05.664Z,8.70
2023-01-29T10:25:58.929Z,8.53
2023-01-29T10:30:52.944Z,8.63
2023-01-29T10:35:54.760Z,8.74
2023-01-29T10:40:54.981Z,8.70
2023-01-29T10:45:52.389Z,8.65
2023-01-29T10:50:55.680Z,8.51
2023-01-29T10:55:59.029Z,8.55
2023-01-29T11:00:53.779Z,8.51
2023-01-29T11:05:47.762Z,8.59
2023-01-29T11:10:45.158Z,8.74
2023-01-29T11:15:38.588Z,8.61
2023-01-29T11:20:32.114Z,8.78
2023-01-29T11:25:23.527Z,8.86
2023-01-29T11:30:25.924Z,8.83
2023-01-29T11:35:26.778Z,8.77
2023-01-29T11:40:45.767Z,8.67
2023-01-29T11:45:46.666Z,8.70
2023-01-29T11:50:37.803Z,8.76
2023-01-29T11:55:44.346Z,8.63
2023-01-29T12:00:44.548Z,8.71
2023-01-29T12:05:37.125Z,8.61
2023-01-29T12:10:37.979Z,8.83
2023-01-29T12:15:34.834Z,8.70
2023-01-29T12:20:34.763Z,8.89
2023-01-29T12:25:33.901Z,8.82
2023-01-29T12:30:31.853Z,8.71
2023-01-29T12:35:28.075Z,8.75
2023-01-29T12:40:37.489Z,8.89
2023-01-29T12:45:41.081Z,8.82
2023-01-29T12:50:36.092Z,8.82
2023-01-29T12:55:42.867Z,8.94
2023-01-29T13:00:41.301Z,8.96
2023-01-29T13:05:40.898Z,9.14
2023-01-29T13:10:39.019Z,9.20
2023-01-29T13:15:38.642Z,9.28
2023-01-29T13:20:31.984Z,9.15
2023-01-29T13:25:27.975Z,9.34
2023-01-29T13:30:39.255Z,9.39
2023-01-29T13:35:41.713Z,9.42
2023-01-29T13:40:49.341Z,9.40
2023-01-29T13:45:52.058Z,9.49
2023-01-29T13:50:48.186Z,9.42
2023-01-29T13:55:40.524Z,9.52
2023-01-29T14:01:01.975Z,9.46
2023-01-29T14:06:05.629Z,9.48
2023-01-29T14:11:30.162Z,9.47
2023-01-29T14:16:38.062Z,9.49
2023-01-29T14:21:34.780Z,9.51
2023-01-29T14:26:36.764Z,9.47
2023-01-29T14:31:42.454Z,9.45
2023-01-29T14:36:46.685Z,9.63
2023-01-29T14:41:44.856Z,9.53
2023-01-29T14:47:01.242Z,9.53
2023-01-29T14:52:24.661Z,9.35
2023-01-29T15:02:37.497Z,9.35
2023-01-29T15:07:42.290Z,9.27
2023-01-29T15:12:58.578Z,9.28
2023-01-29T15:17:57.713Z,9.20
2023-01-29T15:22:54.363Z,9.24
2023-01-29T15:28:03.911Z,9.24
2023-01-29T15:32:56.885Z,9.15
2023-01-29T15:38:06.879Z,9.11
2023-01-29T15:43:15.669Z,9.01
2023-01-29T15:48:28.747Z,9.05
2023-01-29T15:53:28.757Z,9.26
2023-01-29T15:58:21.565Z,9.20
2023-01-29T16:03:18.156Z,9.20
2023-01-29T16:13:30.544Z,9.05
2023-01-29T16:18:29.461Z,8.97
2023-01-29T16:23:25.073Z,8.94
2023-01-29T16:28:25.989Z,8.95
2023-01-29T16:33:21.475Z,8.86
2023-01-29T16:38:46.536Z,8.82
2023-01-29T16:43:53.123Z,8.94
2023-01-29T16:48:48.699Z,8.78
2023-01-29T16:53:41.065Z,8.78
2023-01-29T16:58:35.948Z,8.79
2023-01-29T17:03:53.101Z,8.83
2023-01-29T17:08:49.310Z,8.77
2023-01-29T17:13:46.191Z,9.00
2023-01-29T17:18:35.995Z,8.81
2023-01-29T17:23:31.246Z,8.84
2023-01-29T17:28:31.098Z,8.91
2023-01-29T17:33:26.326Z,8.95
2023-01-29T17:38:27.068Z,8.91
2023-01-29T17:43:18.906Z,8.89
2023-01-29T17:48:19.973Z,8.77
2023-01-29T17:53:19.333Z,8.72
2023-01-29T17:58:08.965Z,8.66
2023-01-29T18:03:04.359Z,8.59
2023-01-29T18:07:58.289Z,8.64
2023-01-29T18:12:51.870Z,8.76
2023-01-29T18:18:05.273Z,8.89
2023-01-29T18:22:59.007Z,8.80
2023-01-29T18:28:01.188Z,8.84
2023-01-29T18:32:56.658Z,8.84
2023-01-29T18:37:51.917Z,8.77
2023-01-29T18:42:53.679Z,8.84
2023-01-29T18:47:48.808Z,8.76
2023-01-29T18:52:41.955Z,8.55
2023-01-29T18:58:27.362Z,8.73
2023-01-29T19:02:59.839Z,8.83
2023-01-29T19:07:52.902Z,8.66
2023-01-29T19:12:47.912Z,8.76
2023-01-29T19:17:44.465Z,8.88
2023-01-29T19:22:37.760Z,8.90
2023-01-29T19:27:34.557Z,8.81
2023-01-29T19:32:28.639Z,8.87
2023-01-29T19:37:31.008Z,8.96
2023-01-29T19:42:29.318Z,8.85
2023-01-29T19:47:20.875Z,9.09
2023-01-29T19:52:52.914Z,9.10
2023-01-29T19:57:50.848Z,9.13
2023-01-29T20:02:47.469Z,9.12
2023-01-29T20:07:40.433Z,9.16
2023-01-29T20:12:38.449Z,9.14
2023-01-29T20:17:37.860Z,9.31
2023-01-29T20:22:29.783Z,9.07
2023-01-29T20:27:19.742Z,9.28
2023-01-29T20:32:13.260Z,9.35
2023-01-29T20:37:14.175Z,9.33
2023-01-29T20:42:11.809Z,9.33
2023-01-29T20:47:04.994Z,9.34
2023-01-29T20:51:55.933Z,9.35
2023-01-29T20:56:50.709Z,9.31
2023-01-29T21:01:43.859Z,9.62
2023-01-29T21:06:35.922Z,9.57
2023-01-29T21:11:29.620Z,9.55
2023-01-29T21:16:35.243Z,9.59
2023-01-29T21:21:27.180Z,9.55
2023-01-29T21:26:19.647Z,9.80
2023-01-29T21:31:11.751Z,9.73
2023-01-29T21:36:14.691Z,9.61
2023-01-29T21:41:06.166Z,9.74
2023-01-29T21:46:00.877Z,9.54
2023-01-29T21:50:57.622Z,9.64
2023-01-29T21:55:51.281Z,9.67
2023-01-29T22:01:18.443Z,9.74
2023-01-29T22:06:21.892Z,9.83
2023-01-29T22:11:23.296Z,9.75
2023-01-29T22:16:20.389Z,9.72
2023-01-29T22:21:21.069Z,10.00
2023-01-29T22:26:19.601Z,9.96
2023-01-29T22:31:15.563Z,9.99
2023-01-29T22:36:08.158Z,9.96
2023-01-29T22:41:03.639Z,10.00
2023-01-29T22:45:56.954Z,10.00
2023-01-29T22:51:18.645Z,10.05
2023-01-29T22:56:25.177Z,10.17
2023-01-29T23:01:19.316Z,10.25
2023-01-29T23:06:12.574Z,10.03
2023-01-29T23:11:15.950Z,10.16
2023-01-29T23:16:12.392Z,10.31
2023-01-29T23:21:04.792Z,10.31
2023-01-29T23:26:15.641Z,10.38
2023-01-29T23:31:05.753Z,10.37
2023-01-29T23:35:58.801Z,10.35
2023-01-29T23:40:50.604Z,10.29
2023-01-29T23:45:46.379Z,10.39
2023-01-29T23:50:42.676Z,10.35
2023-01-29T23:55:39.314Z,10.49
